sensor_id;sensor_type;location;lat;lon;timestamp;P1;durP1;ratioP1;P2;durP2;ratioP2
81231;SDS011;70703;55.652;37.710;2023-07-16T00:00:06;15.13;;;8.30;;
81231;SDS011;70703;55.652;37.710;2023-07-16T00:00:19;14.18;;;8.07;;
81231;SDS011;70703;55.652;37.710;2023-07-16T00:00:36;13.90;;;8.23;;
81231;SDS011;70703;55.652;37.710;2023-07-16T00:00:49;14.57;;;8.45;;
81231;SDS011;70703;55.652;37.710;2023-07-16T00:01:01;15.45;;;8.57;;
81231;SDS011;70703;55.652;37.710;2023-07-16T00:01:12;13.00;;;8.23;;
81231;SDS011;70703;55.652;37.710;2023-07-16T00:01:24;11.80;;;8.20;;
81231;SDS011;70703;55.652;37.710;2023-07-16T00:01:36;14.07;;;8.30;;
81231;SDS011;70703;55.652;37.710;2023-07-16T00:01:47;13.95;;;8.38;;
81231;SDS011;70703;55.652;37.710;2023-07-16T00:01:59;13.70;;;8.30;;
81231;SDS011;70703;55.652;37.710;2023-07-16T00:02:10;14.90;;;8.23;;
81231;SDS011;70703;55.652;37.710;2023-07-16T00:02:22;17.27;;;8.43;;
81231;SDS011;70703;55.652;37.710;2023-07-16T00:02:34;17.83;;;8.10;;
81231;SDS011;70703;55.652;37.710;2023-07-16T00:02:47;16.90;;;8.20;;
81231;SDS011;70703;55.652;37.710;2023-07-16T00:02:59;13.90;;;8.38;;
81231;SDS011;70703;55.652;37.710;2023-07-16T00:03:10;13.30;;;8.48;;
81231;SDS011;70703;55.652;37.710;2023-07-16T00:03:24;12.40;;;8.05;;
81231;SDS011;70703;55.652;37.710;2023-07-16T00:03:35;12.73;;;8.15;;
81231;SDS011;70703;55.652;37.710;2023-07-16T00:03:47;12.43;;;8.27;;
81231;SDS011;70703;55.652;37.710;2023-07-16T00:03:58;13.68;;;8.55;;
81231;SDS011;70703;55.652;37.710;2023-07-16T00:04:11;16.83;;;8.75;;
81231;SDS011;70703;55.652;37.710;2023-07-16T00:04:23;16.48;;;8.50;;
81231;SDS011;70703;55.652;37.710;2023-07-16T00:04:34;14.93;;;8.35;;
81231;SDS011;70703;55.652;37.710;2023-07-16T00:04:46;12.73;;;8.32;;
81231;SDS011;70703;55.652;37.710;2023-07-16T00:04:57;13.32;;;8.20;;
81231;SDS011;70703;55.652;37.710;2023-07-16T00:05:10;14.15;;;8.50;;
81231;SDS011;70703;55.652;37.710;2023-07-16T00:05:21;11.85;;;8.20;;
81231;SDS011;70703;55.652;37.710;2023-07-16T00:05:32;12.43;;;8.20;;
81231;SDS011;70703;55.652;37.710;2023-07-16T00:05:49;11.95;;;8.35;;
81231;SDS011;70703;55.652;37.710;2023-07-16T00:06:02;12.20;;;8.50;;
81231;SDS011;70703;55.652;37.710;2023-07-16T00:06:16;14.70;;;8.68;;
81231;SDS011;70703;55.652;37.710;2023-07-16T00:06:27;14.45;;;8.68;;
81231;SDS011;70703;55.652;37.710;2023-07-16T00:06:39;15.07;;;8.77;;
81231;SDS011;70703;55.652;37.710;2023-07-16T00:06:50;16.10;;;8.73;;
81231;SDS011;70703;55.652;37.710;2023-07-16T00:07:03;15.45;;;8.85;;
81231;SDS011;70703;55.652;37.710;2023-07-16T00:07:16;13.98;;;8.68;;
81231;SDS011;70703;55.652;37.710;2023-07-16T00:07:28;13.35;;;8.55;;
81231;SDS011;70703;55.652;37.710;2023-07-16T00:07:39;13.50;;;8.90;;
81231;SDS011;70703;55.652;37.710;2023-07-16T00:07:51;13.70;;;8.95;;
81231;SDS011;70703;55.652;37.710;2023-07-16T00:08:04;14.18;;;8.70;;
81231;SDS011;70703;55.652;37.710;2023-07-16T00:08:15;14.80;;;8.43;;
81231;SDS011;70703;55.652;37.710;2023-07-16T00:08:26;15.18;;;8.35;;
81231;SDS011;70703;55.652;37.710;2023-07-16T00:08:37;14.65;;;8.20;;
81231;SDS011;70703;55.652;37.710;2023-07-16T00:08:49;13.95;;;8.10;;
81231;SDS011;70703;55.652;37.710;2023-07-16T00:09:01;12.95;;;8.30;;
81231;SDS011;70703;55.652;37.710;2023-07-16T00:09:14;16.60;;;8.70;;
81231;SDS011;70703;55.652;37.710;2023-07-16T00:09:25;17.88;;;8.90;;
81231;SDS011;70703;55.652;37.710;2023-07-16T00:09:39;15.32;;;8.52;;
81231;SDS011;70703;55.652;37.710;2023-07-16T00:09:50;13.25;;;8.60;;
81231;SDS011;70703;55.652;37.710;2023-07-16T00:10:01;14.43;;;8.73;;
81231;SDS011;70703;55.652;37.710;2023-07-16T00:10:14;16.10;;;8.60;;
81231;SDS011;70703;55.652;37.710;2023-07-16T00:10:26;16.65;;;8.48;;
81231;SDS011;70703;55.652;37.710;2023-07-16T00:10:38;15.75;;;8.70;;
81231;SDS011;70703;55.652;37.710;2023-07-16T00:10:50;12.57;;;8.82;;
81231;SDS011;70703;55.652;37.710;2023-07-16T00:11:02;16.58;;;9.00;;
81231;SDS011;70703;55.652;37.710;2023-07-16T00:11:15;16.05;;;8.73;;
81231;SDS011;70703;55.652;37.710;2023-07-16T00:11:26;12.55;;;8.75;;
81231;SDS011;70703;55.652;37.710;2023-07-16T00:11:37;12.25;;;8.75;;
81231;SDS011;70703;55.652;37.710;2023-07-16T00:11:49;13.40;;;8.65;;
81231;SDS011;70703;55.652;37.710;2023-07-16T00:12:03;16.10;;;8.38;;
81231;SDS011;70703;55.652;37.710;2023-07-16T00:12:17;15.45;;;8.43;;
81231;SDS011;70703;55.652;37.710;2023-07-16T00:12:29;13.60;;;8.57;;
81231;SDS011;70703;55.652;37.710;2023-07-16T00:12:41;14.68;;;8.55;;
81231;SDS011;70703;55.652;37.710;2023-07-16T00:12:52;15.70;;;8.35;;
81231;SDS011;70703;55.652;37.710;2023-07-16T00:13:03;16.45;;;8.63;;
81231;SDS011;70703;55.652;37.710;2023-07-16T00:13:14;14.63;;;8.55;;
81231;SDS011;70703;55.652;37.710;2023-07-16T00:13:25;13.77;;;8.60;;
81231;SDS011;70703;55.652;37.710;2023-07-16T00:13:37;12.65;;;8.48;;
81231;SDS011;70703;55.652;37.710;2023-07-16T00:13:48;15.35;;;8.63;;
81231;SDS011;70703;55.652;37.710;2023-07-16T00:14:00;15.45;;;8.50;;
81231;SDS011;70703;55.652;37.710;2023-07-16T00:14:12;13.48;;;8.23;;
81231;SDS011;70703;55.652;37.710;2023-07-16T00:14:24;13.70;;;8.30;;
81231;SDS011;70703;55.652;37.710;2023-07-16T00:14:36;14.15;;;8.73;;
81231;SDS011;70703;55.652;37.710;2023-07-16T00:14:49;16.00;;;8.98;;
81231;SDS011;70703;55.652;37.710;2023-07-16T00:15:02;15.45;;;8.82;;
81231;SDS011;70703;55.652;37.710;2023-07-16T00:15:15;13.82;;;8.75;;
81231;SDS011;70703;55.652;37.710;2023-07-16T00:15:27;13.63;;;8.85;;
81231;SDS011;70703;55.652;37.710;2023-07-16T00:15:40;13.35;;;8.43;;
81231;SDS011;70703;55.652;37.710;2023-07-16T00:15:51;12.13;;;8.40;;
81231;SDS011;70703;55.652;37.710;2023-07-16T00:16:04;13.00;;;8.50;;
81231;SDS011;70703;55.652;37.710;2023-07-16T00:16:15;14.52;;;8.65;;
81231;SDS011;70703;55.652;37.710;2023-07-16T00:16:27;15.52;;;8.75;;
81231;SDS011;70703;55.652;37.710;2023-07-16T00:16:38;14.30;;;8.45;;
81231;SDS011;70703;55.652;37.710;2023-07-16T00:16:50;13.50;;;8.80;;
81231;SDS011;70703;55.652;37.710;2023-07-16T00:17:02;11.98;;;8.70;;
81231;SDS011;70703;55.652;37.710;2023-07-16T00:17:14;12.25;;;8.75;;
81231;SDS011;70703;55.652;37.710;2023-07-16T00:17:26;11.95;;;8.50;;
81231;SDS011;70703;55.652;37.710;2023-07-16T00:17:38;13.68;;;8.63;;
81231;SDS011;70703;55.652;37.710;2023-07-16T00:17:49;15.32;;;8.82;;
81231;SDS011;70703;55.652;37.710;2023-07-16T00:18:01;15.02;;;8.85;;
81231;SDS011;70703;55.652;37.710;2023-07-16T00:18:16;14.93;;;8.60;;
81231;SDS011;70703;55.652;37.710;2023-07-16T00:18:28;16.38;;;8.60;;
81231;SDS011;70703;55.652;37.710;2023-07-16T00:18:41;14.20;;;8.50;;
81231;SDS011;70703;55.652;37.710;2023-07-16T00:18:52;13.60;;;8.40;;
81231;SDS011;70703;55.652;37.710;2023-07-16T00:19:04;12.88;;;8.35;;
81231;SDS011;70703;55.652;37.710;2023-07-16T00:19:15;14.15;;;8.65;;
81231;SDS011;70703;55.652;37.710;2023-07-16T00:19:27;15.88;;;8.68;;
81231;SDS011;70703;55.652;37.710;2023-07-16T00:19:40;15.40;;;8.77;;
81231;SDS011;70703;55.652;37.710;2023-07-16T00:19:52;12.00;;;8.30;;
81231;SDS011;70703;55.652;37.710;2023-07-16T00:20:04;13.63;;;8.10;;
81231;SDS011;70703;55.652;37.710;2023-07-16T00:20:19;13.60;;;8.07;;
81231;SDS011;70703;55.652;37.710;2023-07-16T00:20:30;13.82;;;8.25;;
81231;SDS011;70703;55.652;37.710;2023-07-16T00:20:42;12.18;;;8.43;;
81231;SDS011;70703;55.652;37.710;2023-07-16T00:20:54;13.13;;;8.70;;
81231;SDS011;70703;55.652;37.710;2023-07-16T00:21:06;12.90;;;8.65;;
81231;SDS011;70703;55.652;37.710;2023-07-16T00:21:18;13.73;;;8.40;;
81231;SDS011;70703;55.652;37.710;2023-07-16T00:21:29;13.90;;;8.25;;
81231;SDS011;70703;55.652;37.710;2023-07-16T00:21:40;13.00;;;8.15;;
81231;SDS011;70703;55.652;37.710;2023-07-16T00:21:51;12.68;;;8.25;;
81231;SDS011;70703;55.652;37.710;2023-07-16T00:22:04;13.82;;;8.32;;
81231;SDS011;70703;55.652;37.710;2023-07-16T00:22:15;13.98;;;8.40;;
81231;SDS011;70703;55.652;37.710;2023-07-16T00:22:27;13.23;;;8.52;;
81231;SDS011;70703;55.652;37.710;2023-07-16T00:22:38;14.73;;;8.40;;
81231;SDS011;70703;55.652;37.710;2023-07-16T00:22:50;13.90;;;8.20;;
81231;SDS011;70703;55.652;37.710;2023-07-16T00:23:02;12.63;;;8.20;;
81231;SDS011;70703;55.652;37.710;2023-07-16T00:23:14;12.63;;;8.38;;
81231;SDS011;70703;55.652;37.710;2023-07-16T00:23:27;13.40;;;8.40;;
81231;SDS011;70703;55.652;37.710;2023-07-16T00:23:39;14.82;;;8.70;;
81231;SDS011;70703;55.652;37.710;2023-07-16T00:23:53;14.63;;;8.50;;
81231;SDS011;70703;55.652;37.710;2023-07-16T00:24:04;16.13;;;8.48;;
81231;SDS011;70703;55.652;37.710;2023-07-16T00:24:16;17.50;;;8.38;;
81231;SDS011;70703;55.652;37.710;2023-07-16T00:24:30;16.25;;;8.43;;
81231;SDS011;70703;55.652;37.710;2023-07-16T00:24:41;14.95;;;8.50;;
81231;SDS011;70703;55.652;37.710;2023-07-16T00:24:52;13.45;;;8.73;;
81231;SDS011;70703;55.652;37.710;2023-07-16T00:25:05;12.18;;;8.80;;
81231;SDS011;70703;55.652;37.710;2023-07-16T00:25:19;12.10;;;8.95;;
81231;SDS011;70703;55.652;37.710;2023-07-16T00:25:32;13.43;;;9.07;;
81231;SDS011;70703;55.652;37.710;2023-07-16T00:25:44;14.95;;;8.80;;
81231;SDS011;70703;55.652;37.710;2023-07-16T00:25:55;15.25;;;8.75;;
81231;SDS011;70703;55.652;37.710;2023-07-16T00:26:06;16.08;;;8.65;;
81231;SDS011;70703;55.652;37.710;2023-07-16T00:26:18;13.75;;;8.68;;
81231;SDS011;70703;55.652;37.710;2023-07-16T00:26:31;14.27;;;8.60;;
81231;SDS011;70703;55.652;37.710;2023-07-16T00:26:42;14.02;;;8.63;;
81231;SDS011;70703;55.652;37.710;2023-07-16T00:26:53;14.32;;;8.68;;
81231;SDS011;70703;55.652;37.710;2023-07-16T00:27:05;13.68;;;8.38;;
81231;SDS011;70703;55.652;37.710;2023-07-16T00:27:16;13.00;;;8.48;;
81231;SDS011;70703;55.652;37.710;2023-07-16T00:27:28;15.02;;;8.75;;
81231;SDS011;70703;55.652;37.710;2023-07-16T00:27:41;15.77;;;8.98;;
81231;SDS011;70703;55.652;37.710;2023-07-16T00:27:52;14.65;;;8.90;;
81231;SDS011;70703;55.652;37.710;2023-07-16T00:28:04;13.82;;;8.95;;
81231;SDS011;70703;55.652;37.710;2023-07-16T00:28:16;12.77;;;8.82;;
81231;SDS011;70703;55.652;37.710;2023-07-16T00:28:27;13.85;;;9.02;;
81231;SDS011;70703;55.652;37.710;2023-07-16T00:28:40;13.68;;;8.95;;
81231;SDS011;70703;55.652;37.710;2023-07-16T00:28:51;14.68;;;8.93;;
81231;SDS011;70703;55.652;37.710;2023-07-16T00:29:03;13.13;;;8.98;;
81231;SDS011;70703;55.652;37.710;2023-07-16T00:29:14;12.98;;;9.00;;
81231;SDS011;70703;55.652;37.710;2023-07-16T00:29:25;12.93;;;8.98;;
81231;SDS011;70703;55.652;37.710;2023-07-16T00:29:39;13.80;;;9.00;;
81231;SDS011;70703;55.652;37.710;2023-07-16T00:29:51;12.93;;;9.13;;
81231;SDS011;70703;55.652;37.710;2023-07-16T00:30:04;13.00;;;9.20;;
81231;SDS011;70703;55.652;37.710;2023-07-16T00:30:18;14.27;;;9.02;;
81231;SDS011;70703;55.652;37.710;2023-07-16T00:30:29;14.25;;;9.38;;
81231;SDS011;70703;55.652;37.710;2023-07-16T00:30:42;13.18;;;9.63;;
81231;SDS011;70703;55.652;37.710;2023-07-16T00:30:53;12.90;;;9.43;;
81231;SDS011;70703;55.652;37.710;2023-07-16T00:31:05;13.55;;;9.05;;
81231;SDS011;70703;55.652;37.710;2023-07-16T00:31:16;13.63;;;8.82;;
81231;SDS011;70703;55.652;37.710;2023-07-16T00:31:29;14.68;;;8.90;;
81231;SDS011;70703;55.652;37.710;2023-07-16T00:31:40;14.30;;;8.75;;
81231;SDS011;70703;55.652;37.710;2023-07-16T00:31:52;14.13;;;8.73;;
81231;SDS011;70703;55.652;37.710;2023-07-16T00:32:03;13.40;;;8.80;;
81231;SDS011;70703;55.652;37.710;2023-07-16T00:32:16;13.52;;;8.60;;
81231;SDS011;70703;55.652;37.710;2023-07-16T00:32:27;14.05;;;8.98;;
81231;SDS011;70703;55.652;37.710;2023-07-16T00:32:38;15.35;;;8.93;;
81231;SDS011;70703;55.652;37.710;2023-07-16T00:32:49;14.85;;;9.02;;
81231;SDS011;70703;55.652;37.710;2023-07-16T00:33:01;13.43;;;8.50;;
81231;SDS011;70703;55.652;37.710;2023-07-16T00:33:13;14.93;;;8.40;;
81231;SDS011;70703;55.652;37.710;2023-07-16T00:33:26;14.13;;;8.70;;
81231;SDS011;70703;55.652;37.710;2023-07-16T00:33:38;14.93;;;8.82;;
81231;SDS011;70703;55.652;37.710;2023-07-16T00:33:49;14.30;;;9.00;;
81231;SDS011;70703;55.652;37.710;2023-07-16T00:34:00;14.85;;;8.90;;
81231;SDS011;70703;55.652;37.710;2023-07-16T00:34:12;14.15;;;8.90;;
81231;SDS011;70703;55.652;37.710;2023-07-16T00:34:24;13.13;;;8.82;;
81231;SDS011;70703;55.652;37.710;2023-07-16T00:34:35;13.60;;;9.10;;
81231;SDS011;70703;55.652;37.710;2023-07-16T00:34:47;14.77;;;9.20;;
81231;SDS011;70703;55.652;37.710;2023-07-16T00:34:58;15.05;;;8.85;;
81231;SDS011;70703;55.652;37.710;2023-07-16T00:35:09;15.68;;;8.90;;
81231;SDS011;70703;55.652;37.710;2023-07-16T00:35:22;13.35;;;8.70;;
81231;SDS011;70703;55.652;37.710;2023-07-16T00:35:35;12.60;;;8.82;;
81231;SDS011;70703;55.652;37.710;2023-07-16T00:35:47;13.48;;;9.10;;
81231;SDS011;70703;55.652;37.710;2023-07-16T00:35:59;14.63;;;9.20;;
81231;SDS011;70703;55.652;37.710;2023-07-16T00:36:10;15.50;;;9.15;;
81231;SDS011;70703;55.652;37.710;2023-07-16T00:36:23;14.25;;;9.25;;
81231;SDS011;70703;55.652;37.710;2023-07-16T00:36:34;13.60;;;9.48;;
81231;SDS011;70703;55.652;37.710;2023-07-16T00:36:47;14.82;;;9.65;;
81231;SDS011;70703;55.652;37.710;2023-07-16T00:36:59;15.80;;;9.57;;
81231;SDS011;70703;55.652;37.710;2023-07-16T00:37:12;15.38;;;9.52;;
81231;SDS011;70703;55.652;37.710;2023-07-16T00:37:24;16.45;;;9.60;;
81231;SDS011;70703;55.652;37.710;2023-07-16T00:37:35;15.75;;;9.60;;
81231;SDS011;70703;55.652;37.710;2023-07-16T00:37:48;14.18;;;9.23;;
81231;SDS011;70703;55.652;37.710;2023-07-16T00:37:59;12.65;;;9.40;;
81231;SDS011;70703;55.652;37.710;2023-07-16T00:38:11;13.60;;;9.52;;
81231;SDS011;70703;55.652;37.710;2023-07-16T00:38:22;13.55;;;9.48;;
81231;SDS011;70703;55.652;37.710;2023-07-16T00:38:34;14.05;;;9.00;;
81231;SDS011;70703;55.652;37.710;2023-07-16T00:38:46;13.32;;;9.13;;
81231;SDS011;70703;55.652;37.710;2023-07-16T00:38:57;13.30;;;8.95;;
81231;SDS011;70703;55.652;37.710;2023-07-16T00:39:08;13.63;;;9.05;;
81231;SDS011;70703;55.652;37.710;2023-07-16T00:39:20;14.15;;;8.95;;
81231;SDS011;70703;55.652;37.710;2023-07-16T00:39:31;13.40;;;8.75;;
81231;SDS011;70703;55.652;37.710;2023-07-16T00:39:44;13.20;;;8.45;;
81231;SDS011;70703;55.652;37.710;2023-07-16T00:39:55;14.95;;;8.57;;
81231;SDS011;70703;55.652;37.710;2023-07-16T00:40:08;16.98;;;8.90;;
81231;SDS011;70703;55.652;37.710;2023-07-16T00:40:19;15.23;;;8.80;;
81231;SDS011;70703;55.652;37.710;2023-07-16T00:40:31;14.30;;;8.70;;
81231;SDS011;70703;55.652;37.710;2023-07-16T00:40:42;13.43;;;8.90;;
81231;SDS011;70703;55.652;37.710;2023-07-16T00:40:54;14.30;;;9.07;;
81231;SDS011;70703;55.652;37.710;2023-07-16T00:41:06;16.05;;;9.18;;
81231;SDS011;70703;55.652;37.710;2023-07-16T00:41:20;16.88;;;9.18;;
81231;SDS011;70703;55.652;37.710;2023-07-16T00:41:32;14.05;;;9.27;;
81231;SDS011;70703;55.652;37.710;2023-07-16T00:41:44;13.43;;;8.88;;
81231;SDS011;70703;55.652;37.710;2023-07-16T00:41:57;13.90;;;8.90;;
81231;SDS011;70703;55.652;37.710;2023-07-16T00:42:09;14.07;;;8.73;;
81231;SDS011;70703;55.652;37.710;2023-07-16T00:42:20;13.70;;;8.70;;
81231;SDS011;70703;55.652;37.710;2023-07-16T00:42:32;14.07;;;8.68;;
81231;SDS011;70703;55.652;37.710;2023-07-16T00:42:44;13.80;;;8.65;;
81231;SDS011;70703;55.652;37.710;2023-07-16T00:42:56;15.10;;;8.65;;
81231;SDS011;70703;55.652;37.710;2023-07-16T00:43:07;15.02;;;8.55;;
81231;SDS011;70703;55.652;37.710;2023-07-16T00:43:20;14.52;;;8.48;;
81231;SDS011;70703;55.652;37.710;2023-07-16T00:43:31;13.65;;;8.43;;
81231;SDS011;70703;55.652;37.710;2023-07-16T00:43:42;13.65;;;8.70;;
81231;SDS011;70703;55.652;37.710;2023-07-16T00:43:54;15.15;;;8.88;;
81231;SDS011;70703;55.652;37.710;2023-07-16T00:44:06;14.93;;;8.88;;
81231;SDS011;70703;55.652;37.710;2023-07-16T00:44:18;12.93;;;8.65;;
81231;SDS011;70703;55.652;37.710;2023-07-16T00:44:30;11.45;;;8.60;;
81231;SDS011;70703;55.652;37.710;2023-07-16T00:44:42;13.52;;;8.40;;
81231;SDS011;70703;55.652;37.710;2023-07-16T00:44:53;14.57;;;8.63;;
81231;SDS011;70703;55.652;37.710;2023-07-16T00:45:09;14.38;;;8.65;;
81231;SDS011;70703;55.652;37.710;2023-07-16T00:45:23;13.13;;;8.35;;
81231;SDS011;70703;55.652;37.710;2023-07-16T00:45:35;12.95;;;8.55;;
81231;SDS011;70703;55.652;37.710;2023-07-16T00:45:49;11.93;;;8.77;;
81231;SDS011;70703;55.652;37.710;2023-07-16T00:46:01;14.43;;;9.15;;
81231;SDS011;70703;55.652;37.710;2023-07-16T00:46:13;15.75;;;9.52;;
81231;SDS011;70703;55.652;37.710;2023-07-16T00:46:25;16.27;;;9.85;;
81231;SDS011;70703;55.652;37.710;2023-07-16T00:46:36;15.82;;;9.70;;
81231;SDS011;70703;55.652;37.710;2023-07-16T00:46:50;12.88;;;8.80;;
81231;SDS011;70703;55.652;37.710;2023-07-16T00:47:03;12.05;;;8.73;;
81231;SDS011;70703;55.652;37.710;2023-07-16T00:47:16;13.98;;;8.88;;
81231;SDS011;70703;55.652;37.710;2023-07-16T00:47:28;14.73;;;8.90;;
81231;SDS011;70703;55.652;37.710;2023-07-16T00:47:41;13.52;;;8.93;;
81231;SDS011;70703;55.652;37.710;2023-07-16T00:47:53;13.82;;;9.30;;
81231;SDS011;70703;55.652;37.710;2023-07-16T00:48:05;16.52;;;9.25;;
81231;SDS011;70703;55.652;37.710;2023-07-16T00:48:18;16.08;;;8.82;;
81231;SDS011;70703;55.652;37.710;2023-07-16T00:48:30;14.95;;;8.85;;
81231;SDS011;70703;55.652;37.710;2023-07-16T00:48:42;16.17;;;9.45;;
81231;SDS011;70703;55.652;37.710;2023-07-16T00:48:55;15.57;;;9.23;;
81231;SDS011;70703;55.652;37.710;2023-07-16T00:49:07;15.50;;;9.07;;
81231;SDS011;70703;55.652;37.710;2023-07-16T00:49:20;14.57;;;9.20;;
81231;SDS011;70703;55.652;37.710;2023-07-16T00:49:31;14.63;;;9.40;;
81231;SDS011;70703;55.652;37.710;2023-07-16T00:49:42;16.30;;;9.20;;
81231;SDS011;70703;55.652;37.710;2023-07-16T00:49:54;15.00;;;8.90;;
81231;SDS011;70703;55.652;37.710;2023-07-16T00:50:06;12.00;;;8.80;;
81231;SDS011;70703;55.652;37.710;2023-07-16T00:50:18;12.70;;;8.88;;
81231;SDS011;70703;55.652;37.710;2023-07-16T00:50:32;12.63;;;8.95;;
81231;SDS011;70703;55.652;37.710;2023-07-16T00:50:44;11.32;;;8.75;;
81231;SDS011;70703;55.652;37.710;2023-07-16T00:50:56;12.32;;;8.93;;
81231;SDS011;70703;55.652;37.710;2023-07-16T00:51:08;13.30;;;8.93;;
81231;SDS011;70703;55.652;37.710;2023-07-16T00:51:20;13.25;;;8.75;;
81231;SDS011;70703;55.652;37.710;2023-07-16T00:51:33;14.68;;;8.65;;
81231;SDS011;70703;55.652;37.710;2023-07-16T00:51:45;13.93;;;8.65;;
81231;SDS011;70703;55.652;37.710;2023-07-16T00:51:56;12.57;;;8.80;;
81231;SDS011;70703;55.652;37.710;2023-07-16T00:52:11;12.82;;;9.00;;
81231;SDS011;70703;55.652;37.710;2023-07-16T00:52:28;13.60;;;8.80;;
81231;SDS011;70703;55.652;37.710;2023-07-16T00:52:43;13.02;;;8.65;;
81231;SDS011;70703;55.652;37.710;2023-07-16T00:52:54;14.43;;;8.90;;
81231;SDS011;70703;55.652;37.710;2023-07-16T00:53:07;13.98;;;9.07;;
81231;SDS011;70703;55.652;37.710;2023-07-16T00:53:18;13.25;;;8.95;;
81231;SDS011;70703;55.652;37.710;2023-07-16T00:53:31;11.30;;;8.60;;
81231;SDS011;70703;55.652;37.710;2023-07-16T00:53:42;10.68;;;8.32;;
81231;SDS011;70703;55.652;37.710;2023-07-16T00:53:55;11.82;;;8.50;;
81231;SDS011;70703;55.652;37.710;2023-07-16T00:54:07;12.52;;;8.73;;
81231;SDS011;70703;55.652;37.710;2023-07-16T00:54:18;16.45;;;9.55;;
81231;SDS011;70703;55.652;37.710;2023-07-16T00:54:32;18.05;;;10.68;;
81231;SDS011;70703;55.652;37.710;2023-07-16T00:54:44;16.15;;;11.23;;
81231;SDS011;70703;55.652;37.710;2023-07-16T00:54:56;17.00;;;10.77;;
81231;SDS011;70703;55.652;37.710;2023-07-16T00:55:08;16.52;;;9.98;;
81231;SDS011;70703;55.652;37.710;2023-07-16T00:55:21;16.17;;;9.73;;
81231;SDS011;70703;55.652;37.710;2023-07-16T00:55:32;16.17;;;10.00;;
81231;SDS011;70703;55.652;37.710;2023-07-16T00:55:44;14.07;;;9.80;;
81231;SDS011;70703;55.652;37.710;2023-07-16T00:55:56;15.48;;;9.68;;
81231;SDS011;70703;55.652;37.710;2023-07-16T00:56:08;17.35;;;9.93;;
81231;SDS011;70703;55.652;37.710;2023-07-16T00:56:21;17.92;;;10.30;;
81231;SDS011;70703;55.652;37.710;2023-07-16T00:56:33;17.20;;;10.52;;
81231;SDS011;70703;55.652;37.710;2023-07-16T00:56:46;16.00;;;10.48;;
81231;SDS011;70703;55.652;37.710;2023-07-16T00:56:57;17.17;;;10.15;;
81231;SDS011;70703;55.652;37.710;2023-07-16T00:57:09;15.43;;;9.85;;
81231;SDS011;70703;55.652;37.710;2023-07-16T00:57:21;14.68;;;9.32;;
81231;SDS011;70703;55.652;37.710;2023-07-16T00:57:33;14.15;;;8.93;;
81231;SDS011;70703;55.652;37.710;2023-07-16T00:57:44;14.45;;;8.77;;
81231;SDS011;70703;55.652;37.710;2023-07-16T00:57:58;13.55;;;8.73;;
81231;SDS011;70703;55.652;37.710;2023-07-16T00:58:13;12.93;;;8.73;;
81231;SDS011;70703;55.652;37.710;2023-07-16T00:58:25;15.73;;;8.90;;
81231;SDS011;70703;55.652;37.710;2023-07-16T00:58:39;15.80;;;8.77;;
81231;SDS011;70703;55.652;37.710;2023-07-16T00:58:50;14.20;;;8.45;;
81231;SDS011;70703;55.652;37.710;2023-07-16T00:59:04;12.85;;;8.68;;
81231;SDS011;70703;55.652;37.710;2023-07-16T00:59:16;13.23;;;8.82;;
81231;SDS011;70703;55.652;37.710;2023-07-16T00:59:27;14.90;;;8.80;;
81231;SDS011;70703;55.652;37.710;2023-07-16T00:59:43;16.05;;;8.57;;
81231;SDS011;70703;55.652;37.710;2023-07-16T00:59:55;14.40;;;8.30;;
81231;SDS011;70703;55.652;37.710;2023-07-16T01:00:08;13.13;;;8.30;;
81231;SDS011;70703;55.652;37.710;2023-07-16T01:00:24;14.07;;;8.70;;
81231;SDS011;70703;55.652;37.710;2023-07-16T01:00:43;14.15;;;8.60;;
81231;SDS011;70703;55.652;37.710;2023-07-16T01:01:01;12.40;;;8.57;;
81231;SDS011;70703;55.652;37.710;2023-07-16T01:01:14;13.15;;;8.80;;
81231;SDS011;70703;55.652;37.710;2023-07-16T01:01:26;13.48;;;8.95;;
81231;SDS011;70703;55.652;37.710;2023-07-16T01:01:42;13.65;;;8.93;;
81231;SDS011;70703;55.652;37.710;2023-07-16T01:01:53;13.80;;;9.02;;
81231;SDS011;70703;55.652;37.710;2023-07-16T01:02:05;13.38;;;9.00;;
81231;SDS011;70703;55.652;37.710;2023-07-16T01:02:17;13.35;;;9.00;;
81231;SDS011;70703;55.652;37.710;2023-07-16T01:02:29;12.45;;;8.52;;
81231;SDS011;70703;55.652;37.710;2023-07-16T01:02:40;13.13;;;8.60;;
81231;SDS011;70703;55.652;37.710;2023-07-16T01:02:52;12.55;;;8.52;;
81231;SDS011;70703;55.652;37.710;2023-07-16T01:03:04;12.75;;;8.43;;
81231;SDS011;70703;55.652;37.710;2023-07-16T01:03:20;12.77;;;8.30;;
81231;SDS011;70703;55.652;37.710;2023-07-16T01:03:32;12.98;;;8.38;;
81231;SDS011;70703;55.652;37.710;2023-07-16T01:03:43;13.88;;;8.60;;
81231;SDS011;70703;55.652;37.710;2023-07-16T01:03:55;14.65;;;8.40;;
81231;SDS011;70703;55.652;37.710;2023-07-16T01:04:07;14.75;;;8.32;;
81231;SDS011;70703;55.652;37.710;2023-07-16T01:04:19;14.13;;;8.35;;
81231;SDS011;70703;55.652;37.710;2023-07-16T01:04:31;15.18;;;8.40;;
81231;SDS011;70703;55.652;37.710;2023-07-16T01:04:43;13.45;;;8.13;;
81231;SDS011;70703;55.652;37.710;2023-07-16T01:04:54;14.30;;;8.10;;
81231;SDS011;70703;55.652;37.710;2023-07-16T01:05:07;15.77;;;8.40;;
81231;SDS011;70703;55.652;37.710;2023-07-16T01:05:19;14.60;;;8.35;;
81231;SDS011;70703;55.652;37.710;2023-07-16T01:05:34;15.02;;;8.32;;
81231;SDS011;70703;55.652;37.710;2023-07-16T01:05:55;12.18;;;8.30;;
81231;SDS011;70703;55.652;37.710;2023-07-16T01:06:13;12.57;;;8.30;;
81231;SDS011;70703;55.652;37.710;2023-07-16T01:06:31;14.57;;;8.60;;
81231;SDS011;70703;55.652;37.710;2023-07-16T01:06:47;13.48;;;8.70;;
81231;SDS011;70703;55.652;37.710;2023-07-16T01:07:05;15.38;;;8.48;;
81231;SDS011;70703;55.652;37.710;2023-07-16T01:07:21;15.15;;;8.60;;
81231;SDS011;70703;55.652;37.710;2023-07-16T01:07:35;14.45;;;8.52;;
81231;SDS011;70703;55.652;37.710;2023-07-16T01:07:53;16.00;;;8.40;;
81231;SDS011;70703;55.652;37.710;2023-07-16T01:08:09;17.05;;;8.20;;
81231;SDS011;70703;55.652;37.710;2023-07-16T01:08:27;19.13;;;8.43;;
81231;SDS011;70703;55.652;37.710;2023-07-16T01:08:44;17.67;;;8.73;;
81231;SDS011;70703;55.652;37.710;2023-07-16T01:09:00;15.15;;;8.32;;
81231;SDS011;70703;55.652;37.710;2023-07-16T01:09:14;13.52;;;7.93;;
81231;SDS011;70703;55.652;37.710;2023-07-16T01:09:27;14.18;;;7.93;;
81231;SDS011;70703;55.652;37.710;2023-07-16T01:09:41;15.13;;;8.00;;
81231;SDS011;70703;55.652;37.710;2023-07-16T01:09:53;15.07;;;8.27;;
81231;SDS011;70703;55.652;37.710;2023-07-16T01:10:05;13.23;;;8.05;;
81231;SDS011;70703;55.652;37.710;2023-07-16T01:10:18;15.68;;;7.93;;
81231;SDS011;70703;55.652;37.710;2023-07-16T01:10:30;16.40;;;7.95;;
81231;SDS011;70703;55.652;37.710;2023-07-16T01:10:43;16.75;;;8.02;;
81231;SDS011;70703;55.652;37.710;2023-07-16T01:10:57;12.73;;;8.13;;
81231;SDS011;70703;55.652;37.710;2023-07-16T01:11:09;13.43;;;8.40;;
81231;SDS011;70703;55.652;37.710;2023-07-16T01:11:22;15.68;;;8.60;;
81231;SDS011;70703;55.652;37.710;2023-07-16T01:11:34;15.38;;;8.60;;
81231;SDS011;70703;55.652;37.710;2023-07-16T01:11:47;16.27;;;8.75;;
81231;SDS011;70703;55.652;37.710;2023-07-16T01:12:00;15.05;;;8.80;;
81231;SDS011;70703;55.652;37.710;2023-07-16T01:12:15;13.50;;;8.55;;
81231;SDS011;70703;55.652;37.710;2023-07-16T01:12:27;12.35;;;8.20;;